createdAt,value
2022-11-09T00:00:47.398Z,15.18
2022-11-09T00:05:55.970Z,15.12
2022-11-09T00:11:05.286Z,15.11
2022-11-09T00:16:09.976Z,15.10
2022-11-09T00:21:14.306Z,15.06
2022-11-09T00:26:19.492Z,14.98
2022-11-09T00:31:23.951Z,14.92
2022-11-09T00:36:28.428Z,14.98
2022-11-09T00:41:32.319Z,15.18
2022-11-09T00:46:35.041Z,15.09
2022-11-09T00:51:37.738Z,15.00
2022-11-09T00:56:41.763Z,14.88
2022-11-09T01:01:44.844Z,14.87
2022-11-09T01:06:47.589Z,14.80
2022-11-09T01:11:51.735Z,14.78
2022-11-09T01:16:58.099Z,14.71
2022-11-09T01:22:02.245Z,14.72
2022-11-09T01:27:06.523Z,14.73
2022-11-09T01:32:09.076Z,14.75
2022-11-09T01:37:11.799Z,14.59
2022-11-09T01:42:15.773Z,14.56
2022-11-09T01:47:24.163Z,14.74
2022-11-09T01:52:31.392Z,14.78
2022-11-09T01:57:39.377Z,14.79
2022-11-09T02:02:47.345Z,14.77
2022-11-09T02:07:52.243Z,14.69
2022-11-09T02:13:00.639Z,14.08
2022-11-09T02:18:04.865Z,14.57
2022-11-09T02:23:10.322Z,14.54
2022-11-09T02:28:13.496Z,14.52
2022-11-09T02:33:16.601Z,14.44
2022-11-09T02:38:21.935Z,14.48
2022-11-09T02:43:24.704Z,14.45
2022-11-09T02:48:27.402Z,14.46
2022-11-09T02:53:34.668Z,14.40
2022-11-09T02:58:37.602Z,14.40
2022-11-09T03:03:40.712Z,14.43
2022-11-09T03:08:44.694Z,14.49
2022-11-09T03:13:47.383Z,14.55
2022-11-09T03:18:50.936Z,14.63
2022-11-09T03:23:55.365Z,14.68
2022-11-09T03:28:59.670Z,14.74
2022-11-09T03:34:02.601Z,14.71
2022-11-09T03:39:07.219Z,14.71
2022-11-09T03:44:09.916Z,14.72
2022-11-09T03:49:12.467Z,14.72
2022-11-09T03:54:16.806Z,14.54
2022-11-09T03:59:19.363Z,14.78
2022-11-09T04:04:21.915Z,14.72
2022-11-09T04:09:25.840Z,14.82
2022-11-09T04:14:28.405Z,14.81
2022-11-09T04:19:31.022Z,14.27
2022-11-09T04:24:35.129Z,14.83
2022-11-09T04:29:38.003Z,14.87
2022-11-09T04:34:41.227Z,14.90
2022-11-09T04:39:45.107Z,14.89
2022-11-09T04:44:48.038Z,14.82
2022-11-09T04:49:50.556Z,14.77
2022-11-09T04:54:54.449Z,14.70
2022-11-09T04:59:57.143Z,14.63
2022-11-09T05:04:59.786Z,14.58
2022-11-09T05:10:03.671Z,14.56
2022-11-09T05:15:07.155Z,14.57
2022-11-09T05:20:10.865Z,14.53
2022-11-09T05:25:14.899Z,14.56
2022-11-09T05:30:17.487Z,14.53
2022-11-09T05:35:20.584Z,14.55
2022-11-09T05:40:25.316Z,14.60
2022-11-09T05:45:44.052Z,14.67
2022-11-09T05:50:47.642Z,14.61
2022-11-09T05:56:05.418Z,14.63
2022-11-09T06:01:10.438Z,14.57
2022-11-09T06:06:14.834Z,14.46
2022-11-09T06:11:23.898Z,14.43
2022-11-09T06:16:27.187Z,14.43
2022-11-09T06:21:30.014Z,14.41
2022-11-09T06:26:34.151Z,14.46
2022-11-09T06:31:36.723Z,14.50
2022-11-09T06:36:39.254Z,14.54
2022-11-09T06:41:47.396Z,14.40
2022-11-09T06:46:50.601Z,14.33
2022-11-09T06:51:53.331Z,14.29
2022-11-09T06:56:57.285Z,14.16
2022-11-09T07:02:01.619Z,14.15
2022-11-09T07:07:04.835Z,14.13
2022-11-09T07:12:09.759Z,14.09
2022-11-09T07:17:12.257Z,13.99
2022-11-09T07:22:14.857Z,14.01
2022-11-09T07:27:21.392Z,14.10
2022-11-09T07:32:47.008Z,14.05
2022-11-09T07:37:50.047Z,13.96
2022-11-09T07:42:54.718Z,14.01
2022-11-09T07:47:58.254Z,13.97
2022-11-09T07:53:02.397Z,14.07
2022-11-09T07:58:07.891Z,14.15
2022-11-09T08:03:10.510Z,14.21
2022-11-09T08:08:15.466Z,14.29
2022-11-09T08:13:20.779Z,14.29
2022-11-09T08:18:24.395Z,14.27
2022-11-09T08:23:27.038Z,14.25
2022-11-09T08:28:30.894Z,14.40
2022-11-09T08:33:36.145Z,14.41
2022-11-09T08:38:38.768Z,14.41
2022-11-09T08:43:42.675Z,14.48
2022-11-09T08:48:45.232Z,14.30
2022-11-09T08:53:47.819Z,14.47
2022-11-09T08:58:51.747Z,14.41
2022-11-09T09:03:54.266Z,14.42
2022-11-09T09:08:56.795Z,14.52
2022-11-09T09:14:00.695Z,14.58
2022-11-09T09:19:03.263Z,14.61
2022-11-09T09:24:06.195Z,14.63
2022-11-09T09:29:11.645Z,14.71
2022-11-09T09:34:14.217Z,13.98
2022-11-09T09:39:16.943Z,14.67
2022-11-09T09:44:30.358Z,14.77
2022-11-09T09:49:37.830Z,14.96
2022-11-09T09:54:42.972Z,15.03
2022-11-09T09:59:50.465Z,15.08
2022-11-09T10:04:56.107Z,15.12
2022-11-09T10:10:17.302Z,15.05
2022-11-09T10:15:28.035Z,15.17
2022-11-09T10:20:46.192Z,15.06
2022-11-09T10:26:04.617Z,15.14
2022-11-09T10:31:16.265Z,15.20
2022-11-09T10:36:25.978Z,15.31
2022-11-09T10:41:32.907Z,15.42
2022-11-09T10:47:07.828Z,15.41
2022-11-09T10:52:44.213Z,15.41
2022-11-09T10:58:23.645Z,15.46
2022-11-09T11:03:50.894Z,15.50
2022-11-09T11:09:17.553Z,15.52
2022-11-09T11:14:44.559Z,15.57
2022-11-09T11:20:29.537Z,15.75
2022-11-09T11:26:13.788Z,15.57
2022-11-09T11:31:35.575Z,15.99
2022-11-09T11:37:14.440Z,15.85
2022-11-09T11:43:12.330Z,15.81
2022-11-09T11:48:58.707Z,15.83
2022-11-09T11:54:27.776Z,15.71
2022-11-09T12:00:04.959Z,15.74
2022-11-09T12:05:44.596Z,15.77
2022-11-09T12:11:13.446Z,15.67
2022-11-09T12:16:40.309Z,15.63
2022-11-09T12:22:07.798Z,15.53
2022-11-09T12:27:46.222Z,15.47
2022-11-09T12:33:13.418Z,15.45
2022-11-09T12:38:40.184Z,15.56
2022-11-09T12:44:06.044Z,15.63
2022-11-09T12:49:35.291Z,15.62
2022-11-09T12:54:58.344Z,15.73
2022-11-09T13:00:54.173Z,15.59
2022-11-09T13:06:18.238Z,15.67
2022-11-09T13:11:41.248Z,15.71
2022-11-09T13:17:42.103Z,15.62
2022-11-09T13:23:07.511Z,15.49
2022-11-09T13:29:08.122Z,15.61
2022-11-09T13:34:45.868Z,15.51
2022-11-09T13:40:40.422Z,15.51
2022-11-09T13:46:05.302Z,15.49
2022-11-09T13:51:42.592Z,15.44
2022-11-09T13:57:07.248Z,15.36
2022-11-09T14:02:28.593Z,15.34
2022-11-09T14:07:51.210Z,15.47
2022-11-09T14:13:47.701Z,15.06
2022-11-09T14:19:19.595Z,15.02
2022-11-09T14:24:42.350Z,15.03
2022-11-09T14:30:03.562Z,15.11
2022-11-09T14:35:28.329Z,15.12
2022-11-09T14:40:53.014Z,15.20
2022-11-09T14:46:18.375Z,14.82
2022-11-09T14:51:41.594Z,15.16
2022-11-09T14:57:04.643Z,15.14
2022-11-09T15:02:26.359Z,15.10
2022-11-09T15:07:48.866Z,15.03
2022-11-09T15:13:11.569Z,14.98
2022-11-09T15:18:37.422Z,14.92
2022-11-09T15:24:12.698Z,14.82
2022-11-09T15:29:40.617Z,14.77
2022-11-09T15:35:01.971Z,14.69
2022-11-09T15:40:25.916Z,14.52
2022-11-09T15:45:48.870Z,14.51
2022-11-09T15:51:10.352Z,14.42
2022-11-09T15:56:32.101Z,13.74
2022-11-09T16:01:55.095Z,14.21
2022-11-09T16:07:17.273Z,14.17
2022-11-09T16:12:42.447Z,14.24
2022-11-09T16:18:07.925Z,14.26
2022-11-09T16:23:30.842Z,14.16
2022-11-09T16:28:52.309Z,14.10
2022-11-09T16:34:15.973Z,14.03
2022-11-09T16:39:37.817Z,13.84
2022-11-09T16:45:05.468Z,13.76
2022-11-09T16:50:28.131Z,13.87
2022-11-09T16:55:49.342Z,13.78
2022-11-09T17:07:58.908Z,13.69
2022-11-09T17:13:20.578Z,13.66
2022-11-09T17:18:42.739Z,13.63
2022-11-09T17:24:06.295Z,13.61
2022-11-09T17:29:27.478Z,13.51
2022-11-09T17:34:50.172Z,13.58
2022-11-09T17:40:13.130Z,13.59
2022-11-09T17:45:38.821Z,13.52
2022-11-09T17:51:00.903Z,13.53
2022-11-09T17:56:23.339Z,13.15
2022-11-09T18:01:44.634Z,13.24
2022-11-09T18:07:05.832Z,13.19
2022-11-09T18:12:28.894Z,13.32
2022-11-09T18:17:50.106Z,13.30
2022-11-09T18:23:11.189Z,13.17
2022-11-09T18:28:34.303Z,13.46
2022-11-09T18:33:55.628Z,13.14
2022-11-09T18:39:17.637Z,13.05
2022-11-09T18:44:40.340Z,13.28
2022-11-09T18:50:01.383Z,13.26
2022-11-09T18:55:22.534Z,13.26
2022-11-09T19:00:46.067Z,13.38
2022-11-09T19:06:09.296Z,13.26
2022-11-09T19:11:31.036Z,13.46
2022-11-09T19:16:53.975Z,13.36
2022-11-09T19:22:18.972Z,13.34
2022-11-09T19:27:41.261Z,13.19
2022-11-09T19:33:04.318Z,12.96
2022-11-09T19:38:25.674Z,12.88
2022-11-09T19:43:50.028Z,12.86
2022-11-09T19:49:12.727Z,12.74
2022-11-09T19:54:33.828Z,12.91
2022-11-09T19:59:54.935Z,12.89
2022-11-09T20:05:17.611Z,12.91
2022-11-09T20:10:38.993Z,12.64
2022-11-09T20:16:04.169Z,12.96
2022-11-09T20:21:27.523Z,12.53
2022-11-09T20:26:49.103Z,12.55
2022-11-09T20:32:12.370Z,12.65
2022-11-09T20:37:36.095Z,12.69
2022-11-09T20:42:57.908Z,12.71
2022-11-09T20:48:46.554Z,12.76
2022-11-09T20:54:06.921Z,12.52
2022-11-09T20:59:28.831Z,12.39
2022-11-09T21:04:50.189Z,12.41
2022-11-09T21:10:12.558Z,12.43
2022-11-09T21:15:33.564Z,12.44
2022-11-09T21:20:55.122Z,12.34
2022-11-09T21:26:35.508Z,12.30
2022-11-09T21:31:56.933Z,12.33
2022-11-09T21:37:18.215Z,12.33
2022-11-09T21:42:40.642Z,12.20
2022-11-09T21:48:02.429Z,12.15
2022-11-09T21:53:24.395Z,12.29
2022-11-09T21:58:48.447Z,12.16
2022-11-09T22:04:10.342Z,12.08
2022-11-09T22:09:50.651Z,12.17
2022-11-09T22:15:31.373Z,12.11
2022-11-09T22:20:55.801Z,12.23
2022-11-09T22:26:17.876Z,11.95
2022-11-09T22:31:40.159Z,12.28
2022-11-09T22:37:03.610Z,12.15
2022-11-09T22:42:24.716Z,12.28
2022-11-09T22:47:47.128Z,12.18
2022-11-09T22:53:08.451Z,11.98
2022-11-09T22:58:30.087Z,12.09
2022-11-09T23:03:53.426Z,11.94
2022-11-09T23:09:14.772Z,12.03
2022-11-09T23:14:53.783Z,12.15
2022-11-09T23:20:16.997Z,12.05
2022-11-09T23:25:56.862Z,12.19
2022-11-09T23:31:23.900Z,12.04
2022-11-09T23:36:46.769Z,12.03
2022-11-09T23:42:07.869Z,11.96
2022-11-09T23:47:29.112Z,11.96
2022-11-09T23:52:51.446Z,11.93
2022-11-09T23:58:12.992Z,11.91
